sensor_id;sensor_type;location;lat;lon;timestamp;pressure;altitude;pressure_sealevel;temperature;humidity
27334;BME280;14817;57.104;-2.094;2023-02-01T00:07:26;99680.66;;;4.03;100.00
27334;BME280;14817;57.104;-2.094;2023-02-01T00:14:03;99695.78;;;4.12;100.00
27334;BME280;14817;57.104;-2.094;2023-02-01T01:13:47;99677.63;;;4.07;100.00
27334;BME280;14817;57.104;-2.094;2023-02-01T01:17:56;99705.06;;;4.27;100.00
27334;BME280;14817;57.104;-2.094;2023-02-01T03:03:47;99666.81;;;2.83;100.00
27334;BME280;14817;57.104;-2.094;2023-02-01T03:25:54;99653.56;;;3.47;100.00
27334;BME280;14817;57.104;-2.094;2023-02-01T04:13:22;99658.97;;;2.93;100.00
27334;BME280;14817;57.104;-2.094;2023-02-01T04:51:24;99630.50;;;2.85;100.00
27334;BME280;14817;57.104;-2.094;2023-02-01T04:58:24;99627.13;;;2.83;100.00
27334;BME280;14817;57.104;-2.094;2023-02-01T05:05:09;99660.06;;;2.79;100.00
27334;BME280;14817;57.104;-2.094;2023-02-01T05:10:33;99652.88;;;2.81;100.00
27334;BME280;14817;57.104;-2.094;2023-02-01T05:27:28;99682.44;;;2.75;100.00
27334;BME280;14817;57.104;-2.094;2023-02-01T05:38:03;99695.66;;;2.75;100.00
27334;BME280;14817;57.104;-2.094;2023-02-01T05:55:26;99713.44;;;2.84;100.00
27334;BME280;14817;57.104;-2.094;2023-02-01T06:01:33;99717.78;;;2.74;100.00
27334;BME280;14817;57.104;-2.094;2023-02-01T06:04:13;99718.63;;;2.74;100.00
27334;BME280;14817;57.104;-2.094;2023-02-01T06:14:32;99745.53;;;2.79;100.00
27334;BME280;14817;57.104;-2.094;2023-02-01T06:21:03;99742.03;;;2.79;100.00
27334;BME280;14817;57.104;-2.094;2023-02-01T06:43:51;99771.19;;;3.22;100.00
27334;BME280;14817;57.104;-2.094;2023-02-01T06:50:21;99765.50;;;3.38;100.00
27334;BME280;14817;57.104;-2.094;2023-02-01T07:04:39;99772.38;;;3.62;100.00
27334;BME280;14817;57.104;-2.094;2023-02-01T07:07:12;99785.88;;;3.59;100.00
27334;BME280;14817;57.104;-2.094;2023-02-01T07:17:32;99793.34;;;3.54;100.00
27334;BME280;14817;57.104;-2.094;2023-02-01T07:19:58;99819.59;;;3.45;100.00
27334;BME280;14817;57.104;-2.094;2023-02-01T07:26:26;99817.81;;;3.35;100.00
27334;BME280;14817;57.104;-2.094;2023-02-01T07:54:54;99841.97;;;3.53;100.00
27334;BME280;14817;57.104;-2.094;2023-02-01T07:58:51;99857.59;;;3.56;100.00
27334;BME280;14817;57.104;-2.094;2023-02-01T08:17:51;99908.41;;;3.38;100.00
27334;BME280;14817;57.104;-2.094;2023-02-01T08:43:13;99935.00;;;4.35;100.00
27334;BME280;14817;57.104;-2.094;2023-02-01T09:34:02;99997.03;;;6.20;100.00
27334;BME280;14817;57.104;-2.094;2023-02-01T13:16:37;100160.06;;;6.21;100.00
27334;BME280;14817;57.104;-2.094;2023-02-01T16:00:07;100320.41;;;5.68;100.00
27334;BME280;14817;57.104;-2.094;2023-02-01T16:37:24;100371.69;;;5.25;100.00
27334;BME280;14817;57.104;-2.094;2023-02-01T16:43:32;100380.59;;;5.01;100.00
27334;BME280;14817;57.104;-2.094;2023-02-01T16:50:05;100398.59;;;4.98;100.00
27334;BME280;14817;57.104;-2.094;2023-02-01T16:57:58;100411.47;;;4.80;100.00
27334;BME280;14817;57.104;-2.094;2023-02-01T17:21:47;100448.13;;;4.75;100.00
27334;BME280;14817;57.104;-2.094;2023-02-01T17:42:00;100487.09;;;4.50;100.00
27334;BME280;14817;57.104;-2.094;2023-02-01T17:44:40;100481.75;;;4.39;100.00
27334;BME280;14817;57.104;-2.094;2023-02-01T17:51:27;100480.72;;;4.28;100.00
27334;BME280;14817;57.104;-2.094;2023-02-01T18:42:22;100525.50;;;3.83;100.00
27334;BME280;14817;57.104;-2.094;2023-02-01T19:16:36;100549.41;;;3.95;100.00
27334;BME280;14817;57.104;-2.094;2023-02-01T19:51:02;100584.91;;;4.05;100.00
27334;BME280;14817;57.104;-2.094;2023-02-01T19:57:28;100588.59;;;4.15;100.00
27334;BME280;14817;57.104;-2.094;2023-02-01T20:16:16;100573.44;;;4.17;100.00
27334;BME280;14817;57.104;-2.094;2023-02-01T20:18:43;100572.50;;;4.18;100.00
27334;BME280;14817;57.104;-2.094;2023-02-01T20:21:10;100575.25;;;4.17;100.00
27334;BME280;14817;57.104;-2.094;2023-02-01T20:23:36;100568.03;;;4.19;100.00
27334;BME280;14817;57.104;-2.094;2023-02-01T20:26:04;100574.06;;;4.21;100.00
27334;BME280;14817;57.104;-2.094;2023-02-01T20:28:31;100568.75;;;4.34;100.00
27334;BME280;14817;57.104;-2.094;2023-02-01T20:30:59;100570.84;;;4.28;100.00
27334;BME280;14817;57.104;-2.094;2023-02-01T20:33:26;100566.91;;;4.34;100.00
27334;BME280;14817;57.104;-2.094;2023-02-01T20:35:54;100574.97;;;4.33;100.00
27334;BME280;14817;57.104;-2.094;2023-02-01T20:38:21;100567.75;;;4.35;100.00
27334;BME280;14817;57.104;-2.094;2023-02-01T20:40:48;100574.19;;;4.43;100.00
27334;BME280;14817;57.104;-2.094;2023-02-01T20:43:15;100563.94;;;4.39;100.00
27334;BME280;14817;57.104;-2.094;2023-02-01T20:45:42;100566.13;;;4.45;100.00
27334;BME280;14817;57.104;-2.094;2023-02-01T20:48:10;100571.69;;;4.42;100.00
27334;BME280;14817;57.104;-2.094;2023-02-01T20:50:37;100570.59;;;4.44;100.00
27334;BME280;14817;57.104;-2.094;2023-02-01T20:53:04;100563.25;;;4.48;100.00
27334;BME280;14817;57.104;-2.094;2023-02-01T20:55:30;100572.69;;;4.52;100.00
27334;BME280;14817;57.104;-2.094;2023-02-01T20:57:57;100566.09;;;4.58;100.00
27334;BME280;14817;57.104;-2.094;2023-02-01T21:00:24;100567.50;;;4.50;100.00
27334;BME280;14817;57.104;-2.094;2023-02-01T21:02:53;100570.38;;;4.47;100.00
27334;BME280;14817;57.104;-2.094;2023-02-01T21:05:19;100580.19;;;4.58;100.00
27334;BME280;14817;57.104;-2.094;2023-02-01T21:07:46;100580.94;;;4.60;100.00
27334;BME280;14817;57.104;-2.094;2023-02-01T21:10:13;100581.06;;;4.59;100.00
27334;BME280;14817;57.104;-2.094;2023-02-01T21:12:41;100579.97;;;4.61;100.00
27334;BME280;14817;57.104;-2.094;2023-02-01T21:15:07;100581.91;;;4.59;100.00
27334;BME280;14817;57.104;-2.094;2023-02-01T21:17:34;100588.50;;;4.54;100.00
27334;BME280;14817;57.104;-2.094;2023-02-01T21:20:04;100587.41;;;4.56;100.00
27334;BME280;14817;57.104;-2.094;2023-02-01T21:22:33;100587.31;;;4.58;100.00
27334;BME280;14817;57.104;-2.094;2023-02-01T21:25:03;100576.81;;;4.56;100.00
27334;BME280;14817;57.104;-2.094;2023-02-01T21:27:30;100585.16;;;4.63;100.00
27334;BME280;14817;57.104;-2.094;2023-02-01T21:29:57;100577.63;;;4.69;100.00
27334;BME280;14817;57.104;-2.094;2023-02-01T21:32:23;100590.69;;;4.60;100.00
27334;BME280;14817;57.104;-2.094;2023-02-01T21:34:50;100591.03;;;4.55;100.00
27334;BME280;14817;57.104;-2.094;2023-02-01T21:37:18;100584.25;;;4.51;100.00
27334;BME280;14817;57.104;-2.094;2023-02-01T21:39:44;100583.41;;;4.50;100.00
27334;BME280;14817;57.104;-2.094;2023-02-01T21:42:11;100580.97;;;4.47;100.00
27334;BME280;14817;57.104;-2.094;2023-02-01T21:44:43;100586.91;;;4.51;100.00
27334;BME280;14817;57.104;-2.094;2023-02-01T21:47:13;100582.78;;;4.47;100.00
27334;BME280;14817;57.104;-2.094;2023-02-01T21:49:42;100592.22;;;4.51;100.00
27334;BME280;14817;57.104;-2.094;2023-02-01T21:52:09;100580.97;;;4.47;100.00
27334;BME280;14817;57.104;-2.094;2023-02-01T21:54:37;100589.91;;;4.46;100.00
27334;BME280;14817;57.104;-2.094;2023-02-01T21:57:04;100591.59;;;4.47;100.00
27334;BME280;14817;57.104;-2.094;2023-02-01T21:59:34;100594.13;;;4.49;100.00
27334;BME280;14817;57.104;-2.094;2023-02-01T22:02:03;100600.28;;;4.49;100.00
27334;BME280;14817;57.104;-2.094;2023-02-01T22:04:31;100593.50;;;4.45;100.00
27334;BME280;14817;57.104;-2.094;2023-02-01T22:06:58;100595.06;;;4.48;100.00
27334;BME280;14817;57.104;-2.094;2023-02-01T22:09:25;100589.91;;;4.46;100.00
27334;BME280;14817;57.104;-2.094;2023-02-01T22:11:52;100591.81;;;4.44;100.00
27334;BME280;14817;57.104;-2.094;2023-02-01T22:14:19;100587.34;;;4.45;100.00
27334;BME280;14817;57.104;-2.094;2023-02-01T22:16:46;100588.81;;;4.49;100.00
27334;BME280;14817;57.104;-2.094;2023-02-01T22:19:13;100586.28;;;4.47;100.00
27334;BME280;14817;57.104;-2.094;2023-02-01T22:21:40;100589.66;;;4.49;100.00
27334;BME280;14817;57.104;-2.094;2023-02-01T22:24:08;100585.44;;;4.47;100.00
27334;BME280;14817;57.104;-2.094;2023-02-01T22:26:35;100586.41;;;4.46;100.00
27334;BME280;14817;57.104;-2.094;2023-02-01T22:29:02;100586.41;;;4.46;100.00
27334;BME280;14817;57.104;-2.094;2023-02-01T22:31:29;100590.50;;;4.50;100.00
27334;BME280;14817;57.104;-2.094;2023-02-01T22:33:56;100593.28;;;4.48;100.00
27334;BME280;14817;57.104;-2.094;2023-02-01T22:36:22;100589.47;;;4.53;100.00
27334;BME280;14817;57.104;-2.094;2023-02-01T22:38:50;100595.81;;;4.50;100.00
27334;BME280;14817;57.104;-2.094;2023-02-01T22:41:17;100595.06;;;4.48;100.00
27334;BME280;14817;57.104;-2.094;2023-02-01T22:43:45;100589.31;;;4.54;100.00
27334;BME280;14817;57.104;-2.094;2023-02-01T22:46:12;100588.72;;;4.50;100.00
27334;BME280;14817;57.104;-2.094;2023-02-01T22:48:40;100585.84;;;4.54;100.00
27334;BME280;14817;57.104;-2.094;2023-02-01T22:51:08;100582.00;;;4.58;100.00
27334;BME280;14817;57.104;-2.094;2023-02-01T22:53:38;100585.63;;;4.57;100.00
27334;BME280;14817;57.104;-2.094;2023-02-01T22:56:06;100588.69;;;4.63;100.00
27334;BME280;14817;57.104;-2.094;2023-02-01T22:58:32;100597.13;;;4.68;100.00
27334;BME280;14817;57.104;-2.094;2023-02-01T23:01:08;100588.97;;;4.72;100.00
27334;BME280;14817;57.104;-2.094;2023-02-01T23:03:35;100582.94;;;4.69;100.00
27334;BME280;14817;57.104;-2.094;2023-02-01T23:06:03;100589.16;;;4.68;100.00
27334;BME280;14817;57.104;-2.094;2023-02-01T23:08:29;100593.63;;;4.68;100.00
27334;BME280;14817;57.104;-2.094;2023-02-01T23:10:57;100585.78;;;4.66;100.00
27334;BME280;14817;57.104;-2.094;2023-02-01T23:13:24;100582.94;;;4.69;100.00
27334;BME280;14817;57.104;-2.094;2023-02-01T23:15:50;100581.22;;;4.68;100.00
27334;BME280;14817;57.104;-2.094;2023-02-01T23:18:17;100579.41;;;4.69;100.00
27334;BME280;14817;57.104;-2.094;2023-02-01T23:20:44;100575.16;;;4.66;100.00
27334;BME280;14817;57.104;-2.094;2023-02-01T23:23:10;100581.66;;;4.62;100.00
27334;BME280;14817;57.104;-2.094;2023-02-01T23:25:37;100584.09;;;4.65;100.00
27334;BME280;14817;57.104;-2.094;2023-02-01T23:28:03;100571.50;;;4.80;100.00
27334;BME280;14817;57.104;-2.094;2023-02-01T23:30:30;100574.34;;;4.66;100.00
27334;BME280;14817;57.104;-2.094;2023-02-01T23:32:57;100575.63;;;4.60;100.00
27334;BME280;14817;57.104;-2.094;2023-02-01T23:35:24;100572.75;;;4.63;100.00
27334;BME280;14817;57.104;-2.094;2023-02-01T23:37:51;100577.97;;;4.52;100.00
27334;BME280;14817;57.104;-2.094;2023-02-01T23:40:17;100580.63;;;4.52;100.00
27334;BME280;14817;57.104;-2.094;2023-02-01T23:42:44;100581.09;;;4.46;100.00
27334;BME280;14817;57.104;-2.094;2023-02-01T23:45:31;100580.38;;;4.44;100.00
27334;BME280;14817;57.104;-2.094;2023-02-01T23:47:57;100591.91;;;4.43;100.00
27334;BME280;14817;57.104;-2.094;2023-02-01T23:50:24;100590.09;;;4.43;100.00
27334;BME280;14817;57.104;-2.094;2023-02-01T23:52:51;100592.03;;;4.41;100.00
27334;BME280;14817;57.104;-2.094;2023-02-01T23:55:17;100603.38;;;4.43;100.00
27334;BME280;14817;57.104;-2.094;2023-02-01T23:57:44;100607.84;;;4.43;100.00
